Time;durP1;ratioP1;P1;durP2;ratioP2;P2;SDS_P1;SDS_P2;PMS_P1;PMS_P2;Temp;Humidity;BMP_temperature;BMP_pressure;BME280_temperature;BME280_humidity;BME280_pressure;Samples;Min_cycle;Max_cycle;Signal;HPM_P1;HPM_P2
2023/01/02 00:00:59;;;;;;;;;;;19.50;90.30;;;;;;5095192;28;19915;-51
2023/01/02 00:03:24;;;;;;;;;;;19.60;90.20;;;;;;5094878;28;20420;-54
2023/01/02 00:05:50;;;;;;;;;;;19.60;90.10;;;;;;5092922;28;19914;-53
2023/01/02 00:08:16;;;;;;;;;;;19.70;90.10;;;;;;5095140;28;20306;-50
2023/01/02 00:10:42;;;;;;;;;;;19.70;90.00;;;;;;5076884;28;20354;-53
2023/01/02 00:13:07;;;;;;;;;;;19.70;90.00;;;;;;5094653;28;19955;-51
2023/01/02 00:15:33;;;;;;;;;;;19.80;90.00;;;;;;5076694;28;19919;-49
2023/01/02 00:17:58;;;;;;;;;;;19.80;90.00;;;;;;5094679;28;20290;-53
2023/01/02 00:20:27;;;;;;;;;;;19.70;90.20;;;;;;5094661;28;19990;-53
2023/01/02 00:22:52;;;;;;;;;;;19.80;90.00;;;;;;5094621;28;19915;-51
2023/01/02 00:25:18;;;;;;;;;;;19.80;90.20;;;;;;5091713;28;19912;-51
2023/01/02 00:27:43;;;;;;;;;;;19.70;89.90;;;;;;5091313;28;19918;-49
2023/01/02 00:30:09;;;;;;;;;;;19.70;90.00;;;;;;5075832;28;20354;-52
2023/01/02 00:32:34;;;;;;;;;;;19.70;89.80;;;;;;5089955;28;19912;-50
2023/01/02 00:35:00;;;;;;;;;;;19.70;89.70;;;;;;5105267;28;19909;-49
2023/01/02 00:37:25;;;;;;;;;;;19.70;89.90;;;;;;5094799;28;20022;-50
2023/01/02 00:39:51;;;;;;;;;;;19.70;90.00;;;;;;5094638;28;19916;-54
2023/01/02 00:42:16;;;;;;;;;;;19.60;90.10;;;;;;5095069;28;19908;-50
2023/01/02 00:44:42;;;;;;;;;;;19.60;90.10;;;;;;5094911;28;20020;-51
2023/01/02 00:47:07;;;;;;;;;;;19.60;90.10;;;;;;5094806;28;20359;-52
2023/01/02 00:49:33;;;;;;;;;;;19.60;90.10;;;;;;5094492;28;19912;-49
2023/01/02 00:51:58;;;;;;;;;;;19.60;90.20;;;;;;5094961;28;19919;-53
2023/01/02 00:54:24;;;;;;;;;;;19.60;90.20;;;;;;5076543;28;20359;-47
2023/01/02 00:56:49;;;;;;;;;;;19.60;90.20;;;;;;5094319;28;19908;-51
2023/01/02 00:59:15;;;;;;;;;;;19.60;90.20;;;;;;5094467;28;20358;-50
2023/01/02 01:01:40;;;;;;;;;;;19.60;90.10;;;;;;5094598;28;19912;-53
2023/01/02 01:04:05;;;;;;;;;;;19.70;90.10;;;;;;5094467;28;20004;-49
2023/01/02 01:06:32;;;;;;;;;;;19.70;90.00;;;;;;5097021;28;19916;-48
2023/01/02 01:08:58;;;;;;;;;;;19.80;89.90;;;;;;5100259;28;19912;-52
2023/01/02 01:11:23;;;;;;;;;;;19.80;89.80;;;;;;5096143;28;20001;-52
2023/01/02 01:13:50;;;;;;;;;;;19.90;89.60;;;;;;5092990;28;20385;-54
2023/01/02 01:16:16;;;;;;;;;;;19.90;89.50;;;;;;5093057;28;20259;-52
2023/01/02 01:18:42;;;;;;;;;;;19.90;89.40;;;;;;5092445;28;19916;-52
2023/01/02 01:21:12;;;;;;;;;;;19.90;89.50;;;;;;5092808;28;19908;-52
2023/01/02 01:23:37;;;;;;;;;;;19.80;89.60;;;;;;5092746;28;19908;-53
2023/01/02 01:26:07;;;;;;;;;;;19.80;89.70;;;;;;5092719;28;19912;-53
2023/01/02 01:28:33;;;;;;;;;;;19.80;89.70;;;;;;5093205;28;19912;-52
2023/01/02 01:31:08;;;;;;;;;;;19.80;89.90;;;;;;5093909;28;20270;-49
2023/01/02 01:33:34;;;;;;;;;;;19.80;90.00;;;;;;5094171;28;19961;-47
2023/01/02 01:36:10;;;;;;;;;;;19.80;90.00;;;;;;5094087;28;19908;-50
2023/01/02 01:38:36;;;;;;;;;;;19.80;90.00;;;;;;5093862;28;19923;-53
2023/01/02 01:41:01;;;;;;;;;;;19.70;89.90;;;;;;5094408;28;19999;-52
2023/01/02 01:43:36;;;;;;;;;;;19.70;90.00;;;;;;5093664;28;19919;-53
2023/01/02 01:46:02;;;;;;;;;;;19.70;90.00;;;;;;5093698;28;19914;-54
2023/01/02 01:48:27;;;;;;;;;;;19.70;89.90;;;;;;5093967;28;20360;-51
2023/01/02 01:50:53;;;;;;;;;;;19.70;90.00;;;;;;5094294;28;19919;-49
2023/01/02 01:53:20;;;;;;;;;;;19.70;90.00;;;;;;5094276;28;19944;-50
2023/01/02 01:55:48;;;;;;;;;;;19.70;90.00;;;;;;5093927;28;20347;-53
2023/01/02 01:58:16;;;;;;;;;;;19.70;90.20;;;;;;5093674;28;19909;-48
2023/01/02 02:00:42;;;;;;;;;;;19.70;90.10;;;;;;5093595;28;20010;-53
2023/01/02 02:03:11;;;;;;;;;;;19.70;90.10;;;;;;5093914;28;20445;-50
2023/01/02 02:05:37;;;;;;;;;;;19.70;90.20;;;;;;5093587;28;19914;-53
2023/01/02 02:08:17;;;;;;;;;;;19.70;90.10;;;;;;5093536;28;19908;-50
2023/01/02 02:10:43;;;;;;;;;;;19.70;90.10;;;;;;5094115;28;19912;-54
2023/01/02 02:13:08;;;;;;;;;;;19.80;90.20;;;;;;5093906;28;19954;-53
2023/01/02 02:15:53;;;;;;;;;;;19.70;90.10;;;;;;5093458;28;19908;-52
2023/01/02 02:18:25;;;;;;;;;;;19.70;90.10;;;;;;5093944;28;19919;-51
2023/01/02 02:21:03;;;;;;;;;;;19.70;90.00;;;;;;5093787;28;19950;-53
2023/01/02 02:23:47;;;;;;;;;;;19.80;90.00;;;;;;5097533;28;19909;-50
2023/01/02 02:26:31;;;;;;;;;;;19.80;89.90;;;;;;5097506;28;19947;-49
2023/01/02 02:29:15;;;;;;;;;;;19.80;89.70;;;;;;5097257;28;19937;-51
2023/01/02 02:31:54;;;;;;;;;;;19.90;89.70;;;;;;5097316;28;19993;-53
2023/01/02 02:34:49;;;;;;;;;;;19.80;89.80;;;;;;5079213;28;20023;-53
2023/01/02 02:37:21;;;;;;;;;;;19.90;90.00;;;;;;5079509;28;19908;-51
2023/01/02 02:39:46;;;;;;;;;;;19.90;89.90;;;;;;5097193;28;19998;-50
2023/01/02 02:42:37;;;;;;;;;;;19.80;89.90;;;;;;5096787;28;20373;-53
2023/01/02 02:45:13;;;;;;;;;;;19.80;90.00;;;;;;5096707;28;20049;-50
2023/01/02 02:47:57;;;;;;;;;;;19.80;90.30;;;;;;5097183;28;19908;-48
2023/01/02 02:50:28;;;;;;;;;;;19.80;90.00;;;;;;5096903;28;19914;-51
2023/01/02 02:53:03;;;;;;;;;;;19.80;90.10;;;;;;5097225;28;20341;-48
2023/01/02 02:55:37;;;;;;;;;;;19.80;90.10;;;;;;5096980;28;20350;-49
2023/01/02 02:58:04;;;;;;;;;;;19.70;90.10;;;;;;5096518;28;19912;-54
2023/01/02 03:00:29;;;;;;;;;;;19.70;90.10;;;;;;5096711;28;19969;-49
2023/01/02 03:02:55;;;;;;;;;;;19.70;90.00;;;;;;5096400;28;19912;-53
2023/01/02 03:05:38;;;;;;;;;;;19.70;90.10;;;;;;5096687;28;20023;-53
2023/01/02 03:08:15;;;;;;;;;;;19.70;90.00;;;;;;5096348;28;20386;-51
2023/01/02 03:10:50;;;;;;;;;;;19.70;90.10;;;;;;5096338;28;19918;-51
2023/01/02 03:13:22;;;;;;;;;;;19.70;90.10;;;;;;5096808;28;20001;-51
2023/01/02 03:15:47;;;;;;;;;;;19.70;90.00;;;;;;5096364;28;20343;-53
2023/01/02 03:18:25;;;;;;;;;;;19.70;90.00;;;;;;5096141;28;19934;-50
2023/01/02 03:20:59;;;;;;;;;;;19.70;90.00;;;;;;5096438;28;19916;-53
2023/01/02 03:23:25;;;;;;;;;;;19.80;90.20;;;;;;5096138;28;19961;-51
2023/01/02 03:25:51;;;;;;;;;;;19.80;90.10;;;;;;5096264;28;19909;-51
2023/01/02 03:28:18;;;;;;;;;;;19.80;90.10;;;;;;5096205;28;20278;-52
2023/01/02 03:30:46;;;;;;;;;;;19.80;90.10;;;;;;5078150;28;19915;-52
2023/01/02 03:33:22;;;;;;;;;;;19.80;90.10;;;;;;5095906;28;19912;-53
2023/01/02 03:36:09;;;;;;;;;;;19.90;90.10;;;;;;5078077;28;19915;-48
2023/01/02 03:38:43;;;;;;;;;;;20.00;89.90;;;;;;5095902;28;20098;-49
2023/01/02 03:41:32;;;;;;;;;;;20.00;89.80;;;;;;5096041;28;19953;-48
2023/01/02 03:43:58;;;;;;;;;;;20.00;89.70;;;;;;5084537;28;19924;-53
2023/01/02 03:46:33;;;;;;;;;;;20.00;89.70;;;;;;5095520;28;19999;-48
2023/01/02 03:49:00;;;;;;;;;;;20.00;89.60;;;;;;5095450;28;20388;-52
2023/01/02 03:51:26;;;;;;;;;;;20.00;89.60;;;;;;5095768;28;19908;-48
2023/01/02 03:53:52;;;;;;;;;;;20.00;89.50;;;;;;5077601;28;19915;-53
2023/01/02 03:56:20;;;;;;;;;;;20.00;89.50;;;;;;5095379;28;20330;-51
2023/01/02 03:58:56;;;;;;;;;;;19.90;89.80;;;;;;5077343;28;20309;-48
2023/01/02 04:01:33;;;;;;;;;;;19.90;89.80;;;;;;5095267;28;20435;-48
2023/01/02 04:04:22;;;;;;;;;;;19.90;90.00;;;;;;5095574;28;19916;-53
2023/01/02 04:06:50;;;;;;;;;;;19.90;89.90;;;;;;5057357;28;19908;-52
2023/01/02 04:09:18;;;;;;;;;;;19.80;90.10;;;;;;5095130;28;19908;-52
2023/01/02 04:11:46;;;;;;;;;;;19.80;90.10;;;;;;5077448;28;20376;-52
2023/01/02 04:14:23;;;;;;;;;;;19.80;90.10;;;;;;5095658;28;19953;-52
2023/01/02 04:16:49;;;;;;;;;;;19.80;90.10;;;;;;5095423;28;19908;-54
2023/01/02 04:19:22;;;;;;;;;;;19.70;90.10;;;;;;5095239;28;20388;-53
2023/01/02 04:21:48;;;;;;;;;;;19.70;90.10;;;;;;5094904;28;19961;-50
2023/01/02 04:24:18;;;;;;;;;;;19.70;90.20;;;;;;5095178;28;19913;-50
2023/01/02 04:26:46;;;;;;;;;;;19.70;90.10;;;;;;5094852;28;19912;-51
2023/01/02 04:29:12;;;;;;;;;;;19.80;90.10;;;;;;5095378;28;19912;-49
2023/01/02 04:31:42;;;;;;;;;;;19.80;90.00;;;;;;5094994;28;19908;-50
2023/01/02 04:34:09;;;;;;;;;;;19.80;90.10;;;;;;5094583;28;19923;-50
2023/01/02 04:36:39;;;;;;;;;;;19.80;90.10;;;;;;5094629;28;20271;-48
2023/01/02 04:39:04;;;;;;;;;;;19.80;90.20;;;;;;5094584;28;19954;-53
2023/01/02 04:41:31;;;;;;;;;;;19.80;90.10;;;;;;5094854;28;19908;-50
2023/01/02 04:43:56;;;;;;;;;;;19.80;90.20;;;;;;5094428;28;19920;-50
2023/01/02 04:46:22;;;;;;;;;;;19.90;90.10;;;;;;5094515;28;19914;-53
2023/01/02 04:48:49;;;;;;;;;;;19.90;90.10;;;;;;5093712;28;21324;-53
2023/01/02 04:51:15;;;;;;;;;;;19.90;90.20;;;;;;5094638;28;19908;-50
2023/01/02 04:53:41;;;;;;;;;;;19.90;90.10;;;;;;5094509;28;19956;-53
2023/01/02 04:56:06;;;;;;;;;;;20.00;90.00;;;;;;5094529;28;19909;-48
2023/01/02 04:58:32;;;;;;;;;;;19.90;89.90;;;;;;5094504;28;19908;-48
2023/01/02 05:00:57;;;;;;;;;;;19.90;90.00;;;;;;5094838;28;19916;-54
2023/01/02 05:03:23;;;;;;;;;;;19.90;90.10;;;;;;5094228;28;19912;-52
2023/01/02 05:05:48;;;;;;;;;;;19.90;89.90;;;;;;5094441;28;19908;-48
2023/01/02 05:08:14;;;;;;;;;;;19.90;89.80;;;;;;5094470;28;19932;-51
2023/01/02 05:10:39;;;;;;;;;;;19.90;89.80;;;;;;5094193;28;19908;-50
2023/01/02 05:13:05;;;;;;;;;;;19.80;89.70;;;;;;5094034;28;19908;-53
2023/01/02 05:15:30;;;;;;;;;;;19.90;89.90;;;;;;5076240;28;20351;-51
2023/01/02 05:17:56;;;;;;;;;;;19.80;89.80;;;;;;5094315;28;19912;-49
2023/01/02 05:20:21;;;;;;;;;;;19.80;89.90;;;;;;5094315;28;20382;-51
2023/01/02 05:25:32;;;;;;;;;;;19.80;89.90;;;;;;5093992;28;20398;-48
2023/01/02 05:27:57;;;;;;;;;;;19.80;90.00;;;;;;5093919;28;19909;-52
2023/01/02 05:30:23;;;;;;;;;;;19.80;90.00;;;;;;5094151;28;20274;-51
2023/01/02 05:32:48;;;;;;;;;;;19.80;90.00;;;;;;5094172;28;19940;-49
2023/01/02 05:35:14;;;;;;;;;;;19.80;90.10;;;;;;5093861;28;20328;-50
2023/01/02 05:37:39;;;;;;;;;;;19.90;90.10;;;;;;5093810;28;20244;-50
2023/01/02 05:40:05;;;;;;;;;;;19.90;90.00;;;;;;5093700;28;19913;-51
2023/01/02 05:42:31;;;;;;;;;;;20.00;90.00;;;;;;5094248;28;19941;-52
2023/01/02 05:44:56;;;;;;;;;;;20.10;89.90;;;;;;5094097;28;20011;-49
2023/01/02 05:47:22;;;;;;;;;;;20.20;89.90;;;;;;5093914;28;20271;-50
2023/01/02 05:49:47;;;;;;;;;;;20.20;89.80;;;;;;5094261;28;19981;-55
2023/01/02 05:52:13;;;;;;;;;;;20.20;89.70;;;;;;5094018;28;19912;-49
2023/01/02 05:54:38;;;;;;;;;;;20.20;89.60;;;;;;5093995;28;20368;-50
2023/01/02 05:57:03;;;;;;;;;;;20.20;89.70;;;;;;5096270;28;20411;-51
2023/01/02 05:59:29;;;;;;;;;;;20.20;89.80;;;;;;5097538;28;19912;-53
2023/01/02 06:01:54;;;;;;;;;;;20.10;89.80;;;;;;5097446;28;19978;-50
2023/01/02 06:04:20;;;;;;;;;;;20.10;89.80;;;;;;5097896;28;19908;-50
2023/01/02 06:06:46;;;;;;;;;;;20.10;89.60;;;;;;5097758;28;20027;-52
2023/01/02 06:09:12;;;;;;;;;;;20.10;89.80;;;;;;5097754;28;19912;-53
2023/01/02 06:11:38;;;;;;;;;;;20.00;89.80;;;;;;5098003;28;19952;-50
2023/01/02 06:14:03;;;;;;;;;;;20.00;89.80;;;;;;5097576;28;19916;-49
2023/01/02 06:16:29;;;;;;;;;;;20.00;89.90;;;;;;5097675;28;19958;-50
2023/01/02 06:18:54;;;;;;;;;;;20.00;90.10;;;;;;5097193;28;19920;-52
2023/01/02 06:21:21;;;;;;;;;;;19.90;90.10;;;;;;5097564;28;19912;-51
2023/01/02 06:23:47;;;;;;;;;;;19.90;90.00;;;;;;5097154;28;20354;-52
2023/01/02 06:26:17;;;;;;;;;;;19.90;90.00;;;;;;5097379;28;19909;-52
2023/01/02 06:28:43;;;;;;;;;;;19.90;90.00;;;;;;5097499;28;19908;-54
2023/01/02 06:31:13;;;;;;;;;;;19.90;90.00;;;;;;5097135;28;19963;-54
2023/01/02 06:33:38;;;;;;;;;;;19.90;90.00;;;;;;5097242;28;20010;-48
2023/01/02 06:36:07;;;;;;;;;;;19.80;90.10;;;;;;5096955;28;19939;-49
2023/01/02 06:38:32;;;;;;;;;;;19.80;90.00;;;;;;5096860;28;20002;-53
2023/01/02 06:40:59;;;;;;;;;;;19.90;90.10;;;;;;5097079;28;20005;-50
2023/01/02 06:43:25;;;;;;;;;;;19.90;90.10;;;;;;5096857;28;19920;-50
2023/01/02 06:45:50;;;;;;;;;;;19.90;90.10;;;;;;5097013;28;20351;-51
2023/01/02 06:48:16;;;;;;;;;;;20.00;90.00;;;;;;5096877;28;20005;-54
2023/01/02 06:50:42;;;;;;;;;;;20.10;90.00;;;;;;5096514;28;19908;-49
2023/01/02 06:53:07;;;;;;;;;;;20.30;89.50;;;;;;5096715;28;19961;-51
2023/01/02 06:55:33;;;;;;;;;;;20.40;89.60;;;;;;5096569;28;20306;-50
2023/01/02 06:57:58;;;;;;;;;;;20.40;89.30;;;;;;5078276;28;19918;-52
2023/01/02 07:00:24;;;;;;;;;;;20.40;89.20;;;;;;5096235;28;19919;-51
2023/01/02 07:02:49;;;;;;;;;;;20.40;89.20;;;;;;5096358;28;19965;-50
2023/01/02 07:05:15;;;;;;;;;;;20.40;89.20;;;;;;5095228;28;19931;-50
2023/01/02 07:07:40;;;;;;;;;;;20.40;89.20;;;;;;5096042;28;19915;-52
2023/01/02 07:10:06;;;;;;;;;;;20.40;89.40;;;;;;5096420;28;20283;-49
2023/01/02 07:12:35;;;;;;;;;;;20.40;89.50;;;;;;5078832;28;19999;-51
2023/01/02 07:15:01;;;;;;;;;;;20.30;89.60;;;;;;5096466;28;20308;-51
2023/01/02 07:17:27;;;;;;;;;;;20.30;89.60;;;;;;5096151;28;19908;-47
2023/01/02 07:19:52;;;;;;;;;;;20.30;89.70;;;;;;5096120;28;19935;-53
2023/01/02 07:22:18;;;;;;;;;;;20.20;89.50;;;;;;5096048;28;20260;-50
2023/01/02 07:24:43;;;;;;;;;;;20.20;89.50;;;;;;5096261;28;20001;-48
2023/01/02 07:27:09;;;;;;;;;;;20.10;89.70;;;;;;5096079;28;20006;-55
2023/01/02 07:29:34;;;;;;;;;;;20.10;89.60;;;;;;5095859;28;19998;-47
2023/01/02 07:32:00;;;;;;;;;;;20.10;89.60;;;;;;5095705;28;19908;-50
2023/01/02 07:34:25;;;;;;;;;;;20.10;89.50;;;;;;5096087;28;19914;-48
2023/01/02 07:36:51;;;;;;;;;;;20.10;89.50;;;;;;5096007;28;19915;-50
2023/01/02 07:39:16;;;;;;;;;;;20.00;89.70;;;;;;5095586;28;19970;-52
2023/01/02 07:41:42;;;;;;;;;;;20.00;89.60;;;;;;5096244;28;20252;-47
2023/01/02 07:44:08;;;;;;;;;;;20.00;89.80;;;;;;5095698;28;19963;-51
2023/01/02 07:46:33;;;;;;;;;;;20.00;89.80;;;;;;5096080;28;19916;-50
2023/01/02 07:48:59;;;;;;;;;;;19.90;89.80;;;;;;5095751;28;19912;-48
2023/01/02 07:51:24;;;;;;;;;;;19.90;89.80;;;;;;5095688;28;19908;-50
2023/01/02 07:53:49;;;;;;;;;;;19.90;89.90;;;;;;5095612;28;19972;-53
2023/01/02 07:56:15;;;;;;;;;;;19.90;90.00;;;;;;5095517;28;20372;-51
2023/01/02 07:58:40;;;;;;;;;;;19.90;90.00;;;;;;5095433;28;19995;-50
2023/01/02 08:01:07;;;;;;;;;;;20.00;90.10;;;;;;5077268;28;19912;-53
2023/01/02 08:03:32;;;;;;;;;;;20.00;90.10;;;;;;5095567;28;19908;-52
2023/01/02 08:06:02;;;;;;;;;;;20.10;90.10;;;;;;5095519;28;20030;-51
2023/01/02 08:08:27;;;;;;;;;;;20.20;90.00;;;;;;5095122;28;19992;-50
2023/01/02 08:10:53;;;;;;;;;;;20.40;89.80;;;;;;5095007;28;19916;-52
2023/01/02 08:13:18;;;;;;;;;;;20.40;89.70;;;;;;5095421;28;19908;-52
2023/01/02 08:15:45;;;;;;;;;;;20.50;89.50;;;;;;5094831;28;20331;-50
2023/01/02 08:18:10;;;;;;;;;;;20.50;89.40;;;;;;5094548;28;20015;-52
2023/01/02 08:20:36;;;;;;;;;;;20.40;89.40;;;;;;5094130;28;19959;-48
2023/01/02 08:23:01;;;;;;;;;;;20.40;89.50;;;;;;5095140;28;19912;-49
2023/01/02 08:25:26;;;;;;;;;;;20.40;89.90;;;;;;5094770;28;20278;-52
2023/01/02 08:27:52;;;;;;;;;;;20.40;89.70;;;;;;5094650;28;19908;-52
2023/01/02 08:30:17;;;;;;;;;;;20.40;89.90;;;;;;5094956;28;19953;-50
2023/01/02 08:32:43;;;;;;;;;;;20.40;89.80;;;;;;5094660;28;19920;-50
2023/01/02 08:35:08;;;;;;;;;;;20.30;89.80;;;;;;5094675;28;19923;-52
2023/01/02 08:37:34;;;;;;;;;;;20.30;89.80;;;;;;5094681;28;19917;-48
2023/01/02 08:39:59;;;;;;;;;;;20.30;90.00;;;;;;5094410;28;19912;-52
2023/01/02 08:42:25;;;;;;;;;;;20.20;89.80;;;;;;5094617;28;19912;-53
2023/01/02 08:44:50;;;;;;;;;;;20.20;90.00;;;;;;5076076;28;20436;-51
2023/01/02 08:47:16;;;;;;;;;;;20.20;90.00;;;;;;5094374;28;19914;-51
2023/01/02 08:49:42;;;;;;;;;;;20.10;89.80;;;;;;5093297;28;19912;-47
2023/01/02 08:52:07;;;;;;;;;;;20.10;89.60;;;;;;5094520;28;19908;-52
2023/01/02 08:54:33;;;;;;;;;;;20.10;89.60;;;;;;5094263;28;20000;-53
2023/01/02 08:56:58;;;;;;;;;;;20.10;89.90;;;;;;5094634;28;20298;-49
2023/01/02 08:59:24;;;;;;;;;;;20.10;90.00;;;;;;5094363;28;20016;-49
2023/01/02 09:01:50;;;;;;;;;;;20.10;90.00;;;;;;5092587;28;19954;-50
2023/01/02 09:04:16;;;;;;;;;;;20.00;89.90;;;;;;5090629;28;19956;-51
2023/01/02 09:06:42;;;;;;;;;;;20.00;90.00;;;;;;5078210;28;20368;-52
2023/01/02 09:09:08;;;;;;;;;;;20.00;90.10;;;;;;5073077;28;19959;-48
2023/01/02 09:11:34;;;;;;;;;;;20.00;90.10;;;;;;5071826;28;20019;-49
2023/01/02 09:14:00;;;;;;;;;;;20.00;90.10;;;;;;5071694;28;19908;-52
2023/01/02 09:16:26;;;;;;;;;;;20.00;90.10;;;;;;5071662;28;20382;-51
2023/01/02 09:18:54;;;;;;;;;;;20.00;90.20;;;;;;5071445;28;19940;-48
2023/01/02 09:21:19;;;;;;;;;;;20.10;90.10;;;;;;5072157;28;19942;-51
2023/01/02 09:23:44;;;;;;;;;;;20.10;90.10;;;;;;5072546;28;19909;-51
2023/01/02 09:26:11;;;;;;;;;;;20.20;90.10;;;;;;5073877;28;19969;-53
2023/01/02 09:28:37;;;;;;;;;;;20.30;90.00;;;;;;5074245;28;19909;-49
2023/01/02 09:31:06;;;;;;;;;;;20.40;90.00;;;;;;5073599;28;20343;-52
2023/01/02 09:33:31;;;;;;;;;;;20.40;89.90;;;;;;5073739;28;19908;-50
2023/01/02 09:36:04;;;;;;;;;;;20.40;89.90;;;;;;5073727;28;19908;-52
2023/01/02 09:38:30;;;;;;;;;;;20.40;89.90;;;;;;5080162;28;20370;-49
2023/01/02 09:40:56;;;;;;;;;;;20.40;90.00;;;;;;5093584;28;20452;-51
2023/01/02 09:43:42;;;;;;;;;;;20.40;90.00;;;;;;5093614;28;19926;-52
2023/01/02 09:46:12;;;;;;;;;;;20.40;90.00;;;;;;5093772;28;19908;-49
2023/01/02 09:48:37;;;;;;;;;;;20.30;90.00;;;;;;5093582;28;19934;-51
2023/01/02 09:51:04;;;;;;;;;;;20.30;89.90;;;;;;5093346;28;20301;-50
2023/01/02 09:53:31;;;;;;;;;;;20.30;90.10;;;;;;5085419;28;19919;-49
2023/01/02 09:56:03;;;;;;;;;;;20.20;90.00;;;;;;5079081;28;19915;-49
2023/01/02 09:58:47;;;;;;;;;;;20.30;89.90;;;;;;5074868;28;19914;-50
2023/01/02 10:01:39;;;;;;;;;;;20.20;90.00;;;;;;5097635;28;19928;-48
2023/01/02 10:04:16;;;;;;;;;;;20.20;90.00;;;;;;5077376;28;19913;-50
2023/01/02 10:06:59;;;;;;;;;;;20.20;90.20;;;;;;5089055;28;19912;-48
2023/01/02 10:09:37;;;;;;;;;;;20.10;90.40;;;;;;5101610;28;19912;-52
2023/01/02 10:12:04;;;;;;;;;;;20.20;90.50;;;;;;5100186;28;19923;-47
2023/01/02 10:14:36;;;;;;;;;;;20.10;90.50;;;;;;5095354;28;19912;-49
2023/01/02 10:17:02;;;;;;;;;;;20.10;90.10;;;;;;5109209;28;19912;-48
2023/01/02 10:19:27;;;;;;;;;;;20.10;90.00;;;;;;5112305;28;20320;-49
2023/01/02 10:21:57;;;;;;;;;;;20.00;89.60;;;;;;5112913;28;19924;-50
2023/01/02 10:24:28;;;;;;;;;;;20.00;89.40;;;;;;5110233;28;20003;-50
2023/01/02 10:26:54;;;;;;;;;;;20.00;89.40;;;;;;5095825;28;19923;-48
2023/01/02 10:29:25;;;;;;;;;;;20.00;89.40;;;;;;5093476;28;19908;-48
2023/01/02 10:31:54;;;;;;;;;;;20.00;89.20;;;;;;5093170;28;19908;-48
2023/01/02 10:34:20;;;;;;;;;;;20.00;89.10;;;;;;5101905;28;19950;-51
2023/01/02 10:36:46;;;;;;;;;;;20.00;89.20;;;;;;5081815;28;19908;-50
2023/01/02 10:39:16;;;;;;;;;;;20.00;89.20;;;;;;5113993;28;20339;-49
2023/01/02 10:41:43;;;;;;;;;;;20.00;89.00;;;;;;5102127;28;19939;-48
2023/01/02 10:44:14;;;;;;;;;;;19.90;89.10;;;;;;5096735;28;19916;-49
2023/01/02 10:46:40;;;;;;;;;;;19.90;88.90;;;;;;5096967;28;19915;-48
2023/01/02 10:49:07;;;;;;;;;;;20.00;88.90;;;;;;5095656;28;19904;-52
2023/01/02 10:51:33;;;;;;;;;;;20.00;88.80;;;;;;5097115;28;19911;-49
2023/01/02 10:54:07;;;;;;;;;;;20.00;89.30;;;;;;5103206;28;20347;-50
2023/01/02 10:56:34;;;;;;;;;;;20.00;88.70;;;;;;5101247;28;19916;-52
2023/01/02 10:59:00;;;;;;;;;;;20.00;88.50;;;;;;5106550;28;19912;-51
2023/01/02 11:01:26;;;;;;;;;;;20.00;88.50;;;;;;5095403;28;20260;-51
2023/01/02 11:03:55;;;;;;;;;;;20.10;88.40;;;;;;5100168;28;19912;-51
2023/01/02 11:06:23;;;;;;;;;;;20.10;88.40;;;;;;5095890;28;19911;-48
2023/01/02 11:08:58;;;;;;;;;;;20.10;88.20;;;;;;5096248;28;19912;-51
2023/01/02 11:11:24;;;;;;;;;;;20.10;88.20;;;;;;5099221;28;19923;-51
2023/01/02 11:13:53;;;;;;;;;;;20.10;88.10;;;;;;5100296;28;19991;-50
2023/01/02 11:16:19;;;;;;;;;;;20.10;88.10;;;;;;5100350;28;20367;-51
2023/01/02 11:18:50;;;;;;;;;;;20.10;88.00;;;;;;5095527;28;19915;-50
2023/01/02 11:21:23;;;;;;;;;;;20.10;88.20;;;;;;5095990;28;20298;-52
2023/01/02 11:23:49;;;;;;;;;;;20.10;88.20;;;;;;5095993;28;19961;-51
2023/01/02 11:26:21;;;;;;;;;;;20.00;88.20;;;;;;5096152;28;19908;-52
2023/01/02 11:28:48;;;;;;;;;;;20.00;88.20;;;;;;5096482;28;19955;-50
2023/01/02 11:31:15;;;;;;;;;;;20.00;88.30;;;;;;5076403;28;20283;-52
2023/01/02 11:33:41;;;;;;;;;;;20.00;88.30;;;;;;5091191;28;19908;-50
2023/01/02 11:36:09;;;;;;;;;;;20.00;88.40;;;;;;5099029;28;20382;-52
2023/01/02 11:38:40;;;;;;;;;;;20.00;88.70;;;;;;5115750;28;19908;-47
2023/01/02 11:41:18;;;;;;;;;;;20.10;89.90;;;;;;5107666;28;19920;-51
2023/01/02 11:43:48;;;;;;;;;;;20.00;90.10;;;;;;5115869;28;19924;-52
2023/01/02 11:46:34;;;;;;;;;;;20.00;90.30;;;;;;5103844;28;20274;-50
2023/01/02 11:49:10;;;;;;;;;;;20.00;90.40;;;;;;5102999;28;20015;-50
2023/01/02 11:51:36;;;;;;;;;;;20.00;90.50;;;;;;5087792;28;19908;-50
2023/01/02 11:54:03;;;;;;;;;;;20.00;90.60;;;;;;5077985;28;19908;-51
2023/01/02 11:56:31;;;;;;;;;;;20.00;90.80;;;;;;5099275;28;20285;-49
2023/01/02 11:59:15;;;;;;;;;;;20.00;90.50;;;;;;5107354;28;19919;-51
2023/01/02 12:01:52;;;;;;;;;;;20.00;90.50;;;;;;5083962;28;19916;-47
2023/01/02 12:04:18;;;;;;;;;;;20.00;90.50;;;;;;5092728;28;19912;-46
2023/01/02 12:07:02;;;;;;;;;;;20.00;90.60;;;;;;5096621;28;19923;-47
2023/01/02 12:09:31;;;;;;;;;;;20.00;90.80;;;;;;5095980;28;19913;-53
2023/01/02 12:12:35;;;;;;;;;;;20.10;90.50;;;;;;5115213;28;19908;-49
2023/01/02 12:15:06;;;;;;;;;;;20.10;90.50;;;;;;5026105;28;19909;-50
2023/01/02 12:17:38;;;;;;;;;;;20.10;90.50;;;;;;5012112;28;19917;-47
2023/01/02 12:20:06;;;;;;;;;;;20.10;90.50;;;;;;5054169;28;19924;-48
2023/01/02 12:22:37;;;;;;;;;;;20.10;90.50;;;;;;5094065;28;19908;-47
2023/01/02 12:25:06;;;;;;;;;;;20.10;90.50;;;;;;5094415;28;19911;-47
2023/01/02 12:27:38;;;;;;;;;;;20.10;90.60;;;;;;5094404;28;19954;-50
2023/01/02 12:30:07;;;;;;;;;;;20.10;90.60;;;;;;5114621;28;19916;-51
2023/01/02 12:32:48;;;;;;;;;;;20.20;90.60;;;;;;5111744;28;19966;-47
2023/01/02 12:35:32;;;;;;;;;;;20.10;90.60;;;;;;5094589;28;20278;-51
2023/01/02 12:37:58;;;;;;;;;;;20.20;90.60;;;;;;5094998;28;19958;-53
2023/01/02 12:40:42;;;;;;;;;;;20.20;90.70;;;;;;5095225;28;19955;-50
2023/01/02 12:43:08;;;;;;;;;;;20.20;90.70;;;;;;5094342;28;19919;-51
2023/01/02 12:45:43;;;;;;;;;;;20.20;90.60;;;;;;5106759;28;20328;-49
2023/01/02 12:48:17;;;;;;;;;;;20.20;90.60;;;;;;5114738;28;19912;-53
2023/01/02 12:51:01;;;;;;;;;;;20.20;90.70;;;;;;5108259;28;19911;-50
2023/01/02 12:53:50;;;;;;;;;;;20.20;90.60;;;;;;5112499;28;20273;-48
2023/01/02 12:56:21;;;;;;;;;;;20.20;90.70;;;;;;5097729;28;19965;-51
2023/01/02 12:58:47;;;;;;;;;;;20.20;90.80;;;;;;5114641;28;19908;-48
2023/01/02 13:01:25;;;;;;;;;;;20.20;90.80;;;;;;5101501;28;20378;-47
2023/01/02 13:03:50;;;;;;;;;;;20.20;90.80;;;;;;5096795;28;19966;-51
2023/01/02 13:06:15;;;;;;;;;;;20.20;90.90;;;;;;5098658;28;19951;-50
2023/01/02 13:08:45;;;;;;;;;;;20.20;90.80;;;;;;5109241;28;19921;-52
2023/01/02 13:11:13;;;;;;;;;;;20.20;90.70;;;;;;5111696;28;20309;-53
2023/01/02 13:13:39;;;;;;;;;;;20.20;90.80;;;;;;5110453;28;19919;-50
2023/01/02 13:16:07;;;;;;;;;;;20.20;90.80;;;;;;5103780;28;19907;-51
2023/01/02 13:18:38;;;;;;;;;;;20.20;90.80;;;;;;5099040;28;20375;-52
2023/01/02 13:21:04;;;;;;;;;;;20.20;90.80;;;;;;5093847;28;19924;-52
2023/01/02 13:23:43;;;;;;;;;;;20.20;90.80;;;;;;5093583;28;19957;-48
2023/01/02 13:26:09;;;;;;;;;;;20.20;90.80;;;;;;5092582;28;20339;-48
2023/01/02 13:28:42;;;;;;;;;;;20.30;90.80;;;;;;5075576;28;19908;-48
2023/01/02 13:31:10;;;;;;;;;;;20.30;90.80;;;;;;5096992;28;20384;-46
2023/01/02 13:33:37;;;;;;;;;;;20.30;90.70;;;;;;5114265;28;19908;-52
2023/01/02 13:36:14;;;;;;;;;;;20.30;90.70;;;;;;5095738;28;19919;-53
2023/01/02 13:38:41;;;;;;;;;;;20.30;90.70;;;;;;5092929;28;19920;-51
2023/01/02 13:41:06;;;;;;;;;;;20.30;90.90;;;;;;5096353;28;19924;-49
2023/01/02 13:43:33;;;;;;;;;;;20.30;90.90;;;;;;5104516;28;19981;-52
2023/01/02 13:46:00;;;;;;;;;;;20.30;91.00;;;;;;5109708;28;19976;-50
2023/01/02 13:48:30;;;;;;;;;;;20.30;91.00;;;;;;5114033;28;20315;-50
2023/01/02 13:51:03;;;;;;;;;;;20.40;91.00;;;;;;5096439;28;19989;-53
2023/01/02 13:53:34;;;;;;;;;;;20.40;90.80;;;;;;5091738;28;19908;-53
2023/01/02 13:56:00;;;;;;;;;;;20.30;90.70;;;;;;5096946;28;19911;-53
2023/01/02 13:58:36;;;;;;;;;;;20.30;90.70;;;;;;5091506;28;19919;-52
2023/01/02 14:01:24;;;;;;;;;;;20.30;90.80;;;;;;5108752;28;19923;-53
2023/01/02 14:04:08;;;;;;;;;;;20.30;90.90;;;;;;5089757;28;19920;-57
2023/01/02 14:06:34;;;;;;;;;;;20.30;90.90;;;;;;5095103;28;19978;-58
2023/01/02 14:09:03;;;;;;;;;;;20.30;90.80;;;;;;5100919;28;19908;-58
2023/01/02 14:11:37;;;;;;;;;;;20.30;90.70;;;;;;5097362;28;20243;-59
2023/01/02 14:14:08;;;;;;;;;;;20.40;90.70;;;;;;5113468;28;19908;-60
2023/01/02 14:16:48;;;;;;;;;;;20.40;90.60;;;;;;5109890;28;19924;-59
2023/01/02 14:19:15;;;;;;;;;;;20.40;90.60;;;;;;5104102;28;19919;-60
2023/01/02 14:21:43;;;;;;;;;;;20.40;90.60;;;;;;5101696;28;19947;-55
2023/01/02 14:24:11;;;;;;;;;;;20.40;90.60;;;;;;5081480;28;20011;-53
2023/01/02 14:26:37;;;;;;;;;;;20.40;90.60;;;;;;5089075;28;20389;-54
2023/01/02 14:29:07;;;;;;;;;;;20.40;90.60;;;;;;5104604;28;19912;-68